Time;durP1;ratioP1;P1;durP2;ratioP2;P2;SDS_P1;SDS_P2;PMS_P1;PMS_P2;Temp;Humidity;BMP_temperature;BMP_pressure;BME280_temperature;BME280_humidity;BME280_pressure;Samples;Min_cycle;Max_cycle;Signal;HPM_P1;HPM_P2
2021/12/09 00:01:50;;;;;;;19.13;6.90;;;;;;;6.37;78.53;99367.78;5081002;28;20237;-66
2021/12/09 00:04:25;;;;;;;12.43;6.40;;;;;;;6.47;78.10;99364.25;5080612;28;20229;-66
2021/12/09 00:06:55;;;;;;;19.73;7.00;;;;;;;6.41;78.39;99374.41;5081971;28;20279;-66
2021/12/09 00:09:23;;;;;;;17.23;7.27;;;;;;;6.42;78.15;99362.88;5089710;28;20225;-65
2021/12/09 00:11:52;;;;;;;19.70;6.90;;;;;;;6.50;77.84;99367.44;5090569;28;20245;-65
2021/12/09 00:14:23;;;;;;;17.10;6.17;;;;;;;6.48;77.63;99373.81;5092977;28;20210;-64
2021/12/09 00:16:52;;;;;;;16.73;6.67;;;;;;;6.34;78.20;99368.06;5087292;28;20660;-66
2021/12/09 00:19:20;;;;;;;18.87;6.33;;;;;;;6.27;78.55;99367.00;5084387;28;20664;-65
2021/12/09 00:21:48;;;;;;;17.27;7.40;;;;;;;6.40;77.97;99372.75;5087826;28;20213;-64
2021/12/09 00:24:16;;;;;;;18.70;7.27;;;;;;;6.29;78.10;99369.50;5084837;28;20238;-65
2021/12/09 00:26:45;;;;;;;22.57;6.43;;;;;;;6.21;78.22;99367.59;5087324;28;20310;-65
2021/12/09 00:29:16;;;;;;;18.23;6.60;;;;;;;6.13;78.69;99375.41;5087956;28;20207;-64
2021/12/09 00:31:45;;;;;;;19.37;6.23;;;;;;;6.11;79.17;99376.50;5087065;28;20203;-64
2021/12/09 00:34:12;;;;;;;16.23;6.27;;;;;;;6.22;78.13;99373.69;5085006;28;21021;-65
2021/12/09 00:36:43;;;;;;;16.13;6.13;;;;;;;6.10;78.23;99370.41;5084749;28;20306;-65
2021/12/09 00:39:13;;;;;;;16.10;6.53;;;;;;;6.17;78.11;99370.66;5084208;28;20737;-65
2021/12/09 00:41:41;;;;;;;18.90;6.93;;;;;;;6.27;77.98;99376.69;5082720;28;20211;-64
2021/12/09 00:44:09;;;;;;;17.77;6.43;;;;;;;6.26;77.45;99375.88;5084420;28;20206;-63
2021/12/09 00:46:39;;;;;;;14.43;6.63;;;;;;;6.00;78.07;99381.00;5083880;28;20276;-63
2021/12/09 00:49:08;;;;;;;17.80;6.80;;;;;;;5.96;77.97;99373.53;5083301;28;20590;-65
2021/12/09 00:51:36;;;;;;;18.77;6.93;;;;;;;5.73;78.71;99383.56;5084425;28;20206;-64
2021/12/09 00:54:05;;;;;;;19.90;7.57;;;;;;;5.74;78.83;99389.66;5079947;28;20299;-65
2021/12/09 00:56:32;;;;;;;19.23;8.03;;;;;;;5.61;78.60;99385.56;5084207;28;20532;-65
2021/12/09 00:59:01;;;;;;;17.43;7.23;;;;;;;5.63;79.28;99388.00;5088826;28;20256;-65
2021/12/09 01:01:29;;;;;;;16.30;7.53;;;;;;;5.79;78.23;99376.91;5087466;28;20326;-64
2021/12/09 01:03:58;;;;;;;17.10;7.03;;;;;;;5.72;77.86;99383.72;5088011;28;20238;-64
2021/12/09 01:06:26;;;;;;;16.63;7.00;;;;;;;5.43;78.68;99387.25;5092837;28;20226;-64
2021/12/09 01:08:54;;;;;;;14.67;6.47;;;;;;;5.56;78.55;99387.75;5091839;28;20893;-64
2021/12/09 01:11:23;;;;;;;17.53;7.30;;;;;;;5.54;78.29;99392.31;5092744;28;20217;-64
2021/12/09 01:13:50;;;;;;;16.03;6.43;;;;;;;5.52;78.99;99389.03;5082473;28;20243;-64
2021/12/09 01:16:18;;;;;;;15.47;6.33;;;;;;;5.59;78.66;99387.47;5090188;28;20289;-64
2021/12/09 01:18:46;;;;;;;14.47;6.47;;;;;;;5.85;77.94;99386.84;5091371;28;20614;-66
2021/12/09 01:21:15;;;;;;;16.43;6.27;;;;;;;5.99;77.28;99400.38;5094094;28;20263;-65
2021/12/09 01:23:43;;;;;;;19.23;7.53;;;;;;;5.71;78.41;99387.31;5088527;28;20238;-64
2021/12/09 01:26:11;;;;;;;19.20;7.80;;;;;;;5.67;78.85;99389.41;5092056;28;20230;-64
2021/12/09 01:28:46;;;;;;;13.73;7.17;;;;;;;5.81;77.94;99391.56;5078958;28;21238;-64
2021/12/09 01:31:21;;;;;;;19.07;7.47;;;;;;;5.65;78.22;99396.59;5083142;28;20218;-64
2021/12/09 01:33:51;;;;;;;17.07;6.37;;;;;;;5.43;78.70;99402.19;5085553;28;20245;-64
2021/12/09 01:36:20;;;;;;;13.83;5.60;;;;;;;5.44;78.75;99399.44;5081251;28;20204;-64
2021/12/09 01:38:48;;;;;;;16.83;6.77;;;;;;;5.23;80.02;99401.38;5089567;28;20238;-65
2021/12/09 01:41:16;;;;;;;15.43;5.67;;;;;;;5.38;79.80;99405.22;5087908;28;20275;-65
2021/12/09 01:43:44;;;;;;;17.67;5.67;;;;;;;5.46;79.63;99404.53;5089589;28;20242;-66
2021/12/09 01:46:14;;;;;;;17.73;5.37;;;;;;;5.40;79.62;99408.56;5081083;28;20223;-64
2021/12/09 01:48:47;;;;;;;11.57;5.00;;;;;;;5.27;80.17;99408.03;5086255;28;20248;-65
2021/12/09 01:51:15;;;;;;;10.57;5.13;;;;;;;5.28;80.41;99409.66;5085468;28;20213;-64
2021/12/09 01:53:45;;;;;;;14.53;5.33;;;;;;;5.34;80.49;99406.50;5087048;28;20690;-64
2021/12/09 01:56:20;;;;;;;17.10;6.60;;;;;;;5.31;80.34;99409.41;5082050;28;20207;-64
2021/12/09 01:58:49;;;;;;;18.10;5.47;;;;;;;5.28;80.04;99409.66;5088624;28;20545;-65
2021/12/09 02:01:17;;;;;;;19.13;5.97;;;;;;;5.48;79.49;99400.78;5082892;28;20230;-65
2021/12/09 02:03:45;;;;;;;14.90;5.27;;;;;;;5.24;80.19;99400.41;5083100;28;20218;-65
2021/12/09 02:06:13;;;;;;;16.97;5.70;;;;;;;5.47;79.22;99404.38;5082581;28;20369;-65
2021/12/09 02:08:42;;;;;;;17.87;5.83;;;;;;;5.32;79.09;99405.81;5082758;28;20223;-65
2021/12/09 02:11:12;;;;;;;14.73;5.70;;;;;;;5.42;79.03;99401.38;5085940;28;20210;-65
2021/12/09 02:13:39;;;;;;;14.53;6.00;;;;;;;5.52;78.52;99404.81;5080352;28;20313;-65
2021/12/09 02:16:08;;;;;;;11.93;5.43;;;;;;;5.06;79.39;99408.19;5081739;28;20202;-64
2021/12/09 02:18:36;;;;;;;12.77;5.10;;;;;;;5.42;78.90;99406.63;5082384;28;20638;-64
2021/12/09 02:21:08;;;;;;;14.20;5.60;;;;;;;5.40;78.32;99411.19;5081729;28;20280;-65
2021/12/09 02:23:37;;;;;;;14.90;5.77;;;;;;;5.39;77.51;99406.91;5082909;28;20195;-65
2021/12/09 02:26:05;;;;;;;13.97;5.80;;;;;;;5.23;77.77;99411.91;5087262;28;20234;-64
2021/12/09 02:28:33;;;;;;;16.20;6.17;;;;;;;5.58;77.45;99404.22;5080055;28;20221;-64
2021/12/09 02:31:02;;;;;;;20.20;5.80;;;;;;;5.41;77.86;99402.31;5082305;28;20260;-64
2021/12/09 02:33:30;;;;;;;15.17;6.03;;;;;;;5.50;77.35;99401.47;5087992;28;20597;-64
2021/12/09 02:35:58;;;;;;;16.07;5.60;;;;;;;5.51;77.33;99391.81;5085737;28;20272;-64
2021/12/09 02:38:27;;;;;;;15.80;6.53;;;;;;;5.58;77.21;99391.09;5087057;28;20320;-64
2021/12/09 02:40:56;;;;;;;17.60;6.13;;;;;;;5.37;76.87;99393.06;5088118;28;20297;-64
2021/12/09 02:43:27;;;;;;;13.77;5.53;;;;;;;5.43;76.99;99395.13;5086045;28;20751;-64
2021/12/09 02:45:56;;;;;;;13.63;5.33;;;;;;;5.32;77.31;99395.28;5079350;28;20217;-65
2021/12/09 02:48:25;;;;;;;14.87;6.80;;;;;;;5.03;78.42;99394.47;5088706;28;20276;-64
2021/12/09 02:50:53;;;;;;;13.83;5.87;;;;;;;5.23;77.58;99399.59;5087337;28;20219;-64
2021/12/09 02:53:21;;;;;;;13.60;5.80;;;;;;;5.26;77.17;99409.00;5079927;28;20215;-64
2021/12/09 02:55:50;;;;;;;13.30;5.73;;;;;;;5.45;76.09;99405.53;5078847;28;20318;-64
2021/12/09 02:58:18;;;;;;;17.67;5.43;;;;;;;5.28;76.15;99405.25;5081803;28;20224;-64
2021/12/09 03:00:54;;;;;;;14.30;5.97;;;;;;;5.42;75.97;99414.50;5077942;28;20242;-64
2021/12/09 03:03:22;;;;;;;13.60;5.50;;;;;;;5.24;76.49;99410.94;5080946;28;20214;-65
2021/12/09 03:05:53;;;;;;;14.67;5.40;;;;;;;5.05;77.09;99419.66;5079332;28;20603;-63
2021/12/09 03:08:32;;;;;;;14.77;5.83;;;;;;;5.08;77.58;99426.44;5080908;28;20237;-65
2021/12/09 03:11:05;;;;;;;17.33;6.20;;;;;;;5.43;76.39;99434.56;5074070;28;20244;-63
2021/12/09 03:13:34;;;;;;;11.67;5.80;;;;;;;5.58;75.53;99427.91;5076683;28;20297;-63
2021/12/09 03:16:02;;;;;;;11.53;5.83;;;;;;;5.34;75.99;99442.47;5079713;28;20217;-63
2021/12/09 03:18:30;;;;;;;11.37;5.60;;;;;;;5.33;76.45;99439.00;5085223;28;20292;-65
2021/12/09 03:20:58;;;;;;;13.03;6.03;;;;;;;5.08;77.33;99450.09;5080380;28;20213;-64
2021/12/09 03:23:27;;;;;;;17.10;6.10;;;;;;;5.27;76.90;99453.56;5083842;28;20248;-64
2021/12/09 03:25:55;;;;;;;14.30;5.80;;;;;;;5.25;76.58;99457.28;5085009;28;20293;-65
2021/12/09 03:28:24;;;;;;;16.00;6.37;;;;;;;4.89;78.16;99459.59;5076962;28;20583;-65
2021/12/09 03:30:52;;;;;;;16.00;5.87;;;;;;;4.98;77.83;99462.38;5082185;28;20544;-65
2021/12/09 03:33:20;;;;;;;22.20;7.40;;;;;;;5.02;78.62;99461.94;5085375;28;20213;-65
2021/12/09 03:35:57;;;;;;;13.23;6.67;;;;;;;5.28;77.10;99462.22;5085930;28;20577;-66
2021/12/09 03:38:25;;;;;;;18.37;7.77;;;;;;;5.17;78.45;99467.66;5086676;28;20379;-65
2021/12/09 03:40:54;;;;;;;15.93;7.93;;;;;;;5.28;77.69;99472.75;5064055;28;20206;-65
2021/12/09 03:43:22;;;;;;;22.73;8.10;;;;;;;5.34;77.41;99466.97;5074713;28;20212;-64
2021/12/09 03:45:55;;;;;;;17.33;7.30;;;;;;;5.39;76.80;99477.03;5076354;28;20236;-65
2021/12/09 03:48:23;;;;;;;16.80;7.30;;;;;;;5.23;77.24;99474.97;5068499;28;20277;-65
2021/12/09 03:50:51;;;;;;;15.47;7.53;;;;;;;5.30;77.49;99478.72;5062090;28;20640;-65
2021/12/09 03:53:19;;;;;;;16.03;7.80;;;;;;;5.28;77.76;99470.13;5065927;28;20213;-62
2021/12/09 03:55:47;;;;;;;17.47;8.03;;;;;;;5.66;76.36;99482.41;5067612;28;20301;-63
2021/12/09 03:58:16;;;;;;;18.80;8.33;;;;;;;5.51;76.56;99474.13;5068036;28;20216;-65
2021/12/09 04:00:44;;;;;;;18.57;8.20;;;;;;;5.16;77.37;99476.50;5061938;28;20249;-64
2021/12/09 04:03:13;;;;;;;20.07;8.50;;;;;;;5.57;76.59;99484.09;5067270;28;20308;-64
2021/12/09 04:05:41;;;;;;;16.03;7.97;;;;;;;5.57;76.77;99473.56;5065254;28;20319;-65
2021/12/09 04:08:09;;;;;;;16.57;7.43;;;;;;;5.42;76.76;99474.97;5064042;28;20233;-65
2021/12/09 04:10:37;;;;;;;15.93;7.87;;;;;;;5.52;76.88;99474.97;5061790;28;20881;-65
2021/12/09 04:13:05;;;;;;;15.63;7.73;;;;;;;5.68;76.11;99470.78;5066151;28;20592;-65
2021/12/09 04:15:33;;;;;;;18.03;8.43;;;;;;;5.66;76.21;99472.72;5063085;28;20210;-65
2021/12/09 04:18:01;;;;;;;16.67;7.80;;;;;;;5.64;76.37;99464.13;5070560;28;20664;-65
2021/12/09 04:20:31;;;;;;;14.93;7.27;;;;;;;5.17;78.37;99472.91;5065117;28;20215;-65
2021/12/09 04:22:59;;;;;;;14.40;7.17;;;;;;;5.34;78.36;99460.88;5061933;28;20215;-64
2021/12/09 04:25:28;;;;;;;14.00;7.57;;;;;;;5.37;77.63;99471.09;5062411;28;20380;-64
2021/12/09 04:27:56;;;;;;;15.77;7.80;;;;;;;5.52;77.41;99477.59;5063206;28;20239;-64
2021/12/09 04:30:25;;;;;;;11.27;5.60;;;;;;;5.77;75.92;99484.91;5062857;28;20594;-64
2021/12/09 04:32:54;;;;;;;13.53;6.50;;;;;;;5.48;76.82;99484.09;5063081;28;20223;-65
2021/12/09 04:35:23;;;;;;;11.20;5.40;;;;;;;5.19;77.52;99484.91;5062899;28;20235;-65
2021/12/09 04:37:54;;;;;;;12.80;6.43;;;;;;;5.42;76.67;99482.88;5060768;28;20285;-64
2021/12/09 04:40:22;;;;;;;11.37;5.87;;;;;;;5.45;76.19;99479.97;5078325;28;20242;-65
2021/12/09 04:42:50;;;;;;;11.97;5.07;;;;;;;5.66;75.65;99478.00;5082636;28;20300;-64
2021/12/09 04:45:17;;;;;;;12.67;5.70;;;;;;;5.61;75.26;99479.38;5081380;28;20214;-64
2021/12/09 04:47:45;;;;;;;11.27;4.97;;;;;;;5.73;75.16;99477.41;5079752;28;20597;-65
2021/12/09 04:50:13;;;;;;;13.57;5.43;;;;;;;5.37;76.65;99466.66;5080838;28;20326;-65
2021/12/09 04:52:41;;;;;;;12.13;5.40;;;;;;;5.58;76.20;99480.50;5083565;28;20308;-64
2021/12/09 04:55:11;;;;;;;11.17;5.17;;;;;;;5.74;75.35;99473.81;5077842;28;20210;-65
2021/12/09 04:57:39;;;;;;;12.07;5.63;;;;;;;5.78;75.12;99478.66;5086916;28;20211;-65
2021/12/09 05:00:11;;;;;;;13.50;5.83;;;;;;;5.61;75.40;99485.47;5086161;28;20222;-65
2021/12/09 05:02:57;;;;;;;13.53;5.40;;;;;;;5.55;76.30;99485.19;5082923;28;20594;-65
2021/12/09 05:05:25;;;;;;;15.53;6.03;;;;;;;5.44;76.61;99477.47;5083822;28;20689;-64
2021/12/09 05:07:53;;;;;;;10.77;5.60;;;;;;;5.41;76.31;99483.81;5082671;28;20397;-64
2021/12/09 05:10:22;;;;;;;13.80;6.00;;;;;;;5.47;77.19;99485.91;5080765;28;20218;-64
2021/12/09 05:12:50;;;;;;;13.13;5.73;;;;;;;5.60;75.81;99496.13;5082570;28;20230;-64
2021/12/09 05:15:18;;;;;;;12.83;5.83;;;;;;;5.79;75.48;99498.75;5080917;28;20203;-65
2021/12/09 05:17:45;;;;;;;11.57;5.20;;;;;;;5.69;75.53;99497.94;5080642;28;20222;-65
2021/12/09 05:20:13;;;;;;;14.40;5.30;;;;;;;5.67;75.73;99500.69;5082898;28;20293;-65
2021/12/09 05:22:41;;;;;;;11.77;5.67;;;;;;;5.41;76.87;99502.22;5082476;28;20254;-63
2021/12/09 05:25:09;;;;;;;13.00;5.67;;;;;;;5.43;76.80;99496.84;5082467;28;20293;-63
2021/12/09 05:27:38;;;;;;;12.87;6.13;;;;;;;5.42;77.13;99506.53;5081930;28;20222;-63
2021/12/09 05:30:12;;;;;;;15.60;6.03;;;;;;;5.56;76.17;99508.72;5076669;28;20237;-63
2021/12/09 05:32:40;;;;;;;14.50;5.43;;;;;;;5.40;76.86;99507.63;5081932;28;20211;-63
2021/12/09 05:35:08;;;;;;;15.23;6.40;;;;;;;5.52;76.46;99517.88;5082319;28;20742;-63
2021/12/09 05:37:37;;;;;;;11.10;5.30;;;;;;;5.44;76.76;99509.84;5086947;28;20211;-64
2021/12/09 05:40:06;;;;;;;10.23;5.07;;;;;;;5.68;75.84;99512.03;5083021;28;20283;-63
2021/12/09 05:42:34;;;;;;;14.03;5.47;;;;;;;5.38;76.69;99506.94;5082208;28;20798;-64
2021/12/09 05:45:04;;;;;;;11.23;5.80;;;;;;;5.43;77.02;99507.34;5084958;28;20209;-64
2021/12/09 05:47:32;;;;;;;17.10;7.23;;;;;;;5.50;76.44;99514.56;5083922;28;20313;-64
2021/12/09 05:50:07;;;;;;;15.13;7.33;;;;;;;5.40;76.87;99521.59;5080293;28;20576;-64
2021/12/09 05:52:35;;;;;;;15.37;7.80;;;;;;;5.45;76.89;99516.78;5080383;28;20238;-64
2021/12/09 05:55:04;;;;;;;17.17;7.73;;;;;;;5.33;77.29;99527.56;5082135;28;20203;-64
2021/12/09 05:57:31;;;;;;;15.23;6.80;;;;;;;5.58;76.27;99534.88;5081917;28;20214;-66
2021/12/09 06:00:00;;;;;;;12.07;6.27;;;;;;;5.43;76.76;99529.22;5078279;28;20207;-64
2021/12/09 06:02:34;;;;;;;16.20;6.97;;;;;;;5.62;76.70;99521.34;5083108;28;20225;-67
2021/12/09 06:05:02;;;;;;;17.73;6.77;;;;;;;5.43;77.66;99528.38;5087083;28;20586;-64
2021/12/09 06:07:30;;;;;;;16.00;7.63;;;;;;;5.58;76.70;99530.47;5085273;28;20207;-64
2021/12/09 06:10:00;;;;;;;16.13;7.50;;;;;;;5.70;75.99;99532.94;5088337;28;20258;-64
2021/12/09 06:12:28;;;;;;;16.67;7.33;;;;;;;5.51;76.74;99542.50;5084704;28;20332;-64
2021/12/09 06:14:56;;;;;;;19.10;8.00;;;;;;;5.64;77.07;99550.09;5084769;28;21433;-64
2021/12/09 06:17:23;;;;;;;17.63;7.40;;;;;;;5.49;77.43;99551.50;5086855;28;20333;-64
2021/12/09 06:19:53;;;;;;;13.33;6.87;;;;;;;5.27;78.36;99556.06;5085885;28;20205;-64
2021/12/09 06:22:20;;;;;;;19.00;6.73;;;;;;;4.97;80.24;99564.00;5078763;28;20221;-64
2021/12/09 06:24:48;;;;;;;14.30;7.50;;;;;;;5.48;78.58;99566.44;5080762;28;20219;-64
2021/12/09 06:27:16;;;;;;;14.63;7.13;;;;;;;5.45;78.51;99565.91;5081943;28;20210;-64
2021/12/09 06:29:43;;;;;;;12.80;6.30;;;;;;;5.35;78.32;99572.94;5080093;28;20223;-63
2021/12/09 06:32:14;;;;;;;17.93;7.53;;;;;;;5.53;78.07;99577.38;5081410;28;20306;-64
2021/12/09 06:34:42;;;;;;;14.87;6.90;;;;;;;5.51;77.92;99581.13;5079573;28;20207;-64
2021/12/09 06:37:11;;;;;;;12.90;7.37;;;;;;;5.62;76.95;99573.94;5078672;28;20268;-64
2021/12/09 06:39:39;;;;;;;12.30;6.30;;;;;;;5.37;77.97;99570.97;5073383;28;20244;-64
2021/12/09 06:42:08;;;;;;;16.50;6.13;;;;;;;5.66;76.76;99569.22;5060181;28;20211;-64
2021/12/09 06:44:37;;;;;;;16.90;7.50;;;;;;;5.51;77.27;99574.06;5059980;28;20305;-64
2021/12/09 06:47:05;;;;;;;15.17;6.50;;;;;;;5.63;77.09;99569.47;5061067;28;20294;-64
2021/12/09 06:49:33;;;;;;;14.67;6.97;;;;;;;5.52;77.34;99583.63;5052207;28;20220;-64
2021/12/09 06:52:01;;;;;;;14.43;7.40;;;;;;;5.61;76.66;99585.41;5060020;28;20305;-64
2021/12/09 06:54:30;;;;;;;13.50;7.10;;;;;;;5.26;78.62;99585.09;5064656;28;20570;-65
2021/12/09 06:56:58;;;;;;;19.83;6.87;;;;;;;5.12;79.73;99588.09;5061064;28;20239;-64
2021/12/09 06:59:25;;;;;;;13.33;6.83;;;;;;;5.26;79.18;99596.44;5061612;28;20234;-63
2021/12/09 07:01:53;;;;;;;14.13;6.87;;;;;;;5.70;77.29;99590.81;5063505;28;20234;-63
2021/12/09 07:04:21;;;;;;;12.17;5.77;;;;;;;5.44;77.76;99593.16;5059098;28;20215;-64
2021/12/09 07:06:49;;;;;;;14.90;7.13;;;;;;;5.62;77.25;99597.59;5058247;28;20216;-64
2021/12/09 07:09:17;;;;;;;16.07;7.07;;;;;;;5.64;77.40;99600.91;5060708;28;20870;-65
2021/12/09 07:11:50;;;;;;;12.03;6.70;;;;;;;5.60;77.23;99603.97;5058543;28;20648;-64
2021/12/09 07:14:18;;;;;;;12.37;6.67;;;;;;;5.17;79.10;99612.19;5060824;28;20713;-64
2021/12/09 07:16:46;;;;;;;13.60;6.27;;;;;;;5.12;79.27;99609.13;5060892;28;20350;-65
2021/12/09 07:19:14;;;;;;;15.00;6.57;;;;;;;5.08;80.73;99613.00;5066754;28;20325;-64
2021/12/09 07:21:44;;;;;;;15.63;6.70;;;;;;;4.93;80.77;99623.03;5066403;28;20680;-64
2021/12/09 07:24:18;;;;;;;16.80;6.40;;;;;;;4.78;80.94;99627.81;5065431;28;20963;-63
2021/12/09 07:26:47;;;;;;;12.83;5.80;;;;;;;4.74;81.46;99630.84;5067664;28;20641;-64
2021/12/09 07:29:15;;;;;;;12.23;5.90;;;;;;;5.17;79.53;99628.78;5065187;28;20227;-63
2021/12/09 07:31:43;;;;;;;14.63;5.40;;;;;;;5.50;77.74;99638.13;5066029;28;20332;-63
2021/12/09 07:34:11;;;;;;;13.27;5.77;;;;;;;5.53;77.45;99635.25;5067852;28;20213;-61
2021/12/09 07:36:38;;;;;;;11.53;6.13;;;;;;;5.21;79.53;99635.44;5061384;28;20708;-63
2021/12/09 07:39:06;;;;;;;15.33;6.30;;;;;;;5.73;77.36;99624.72;5068195;28;20235;-63
2021/12/09 07:41:34;;;;;;;12.67;5.90;;;;;;;5.72;76.38;99630.97;5081569;28;20269;-62
2021/12/09 07:44:05;;;;;;;11.67;5.87;;;;;;;5.37;77.95;99634.91;5084550;28;20305;-62
2021/12/09 07:46:34;;;;;;;15.27;6.20;;;;;;;5.64;77.08;99631.63;5081728;28;20221;-62
2021/12/09 07:49:01;;;;;;;12.63;6.87;;;;;;;5.61;76.79;99632.75;5081132;28;20202;-62
2021/12/09 07:51:29;;;;;;;18.50;7.47;;;;;;;5.86;76.04;99625.28;5084498;28;20238;-63
2021/12/09 07:53:59;;;;;;;17.70;7.60;;;;;;;5.89;75.55;99635.59;5081408;28;20243;-63
2021/12/09 07:56:27;;;;;;;17.47;8.13;;;;;;;5.97;75.34;99635.72;5077976;28;20322;-63
2021/12/09 07:58:54;;;;;;;16.80;7.77;;;;;;;5.80;75.96;99639.00;5083404;28;20206;-63
2021/12/09 08:01:30;;;;;;;21.50;8.60;;;;;;;5.71;75.79;99630.16;5087212;28;20227;-65
2021/12/09 08:03:58;;;;;;;25.47;8.17;;;;;;;5.93;74.88;99642.22;5091139;28;20219;-63
2021/12/09 08:06:26;;;;;;;21.47;8.23;;;;;;;5.67;75.59;99641.88;5085928;28;20217;-63
2021/12/09 08:08:54;;;;;;;17.03;7.93;;;;;;;5.86;74.75;99641.06;5081300;28;20659;-62
2021/12/09 08:11:21;;;;;;;20.33;8.73;;;;;;;5.70;75.30;99638.16;5082503;28;20286;-63
2021/12/09 08:13:49;;;;;;;20.20;8.77;;;;;;;5.70;75.80;99643.44;5083801;28;20572;-63
2021/12/09 08:16:18;;;;;;;19.30;7.83;;;;;;;5.85;75.21;99645.50;5083588;28;20672;-65
2021/12/09 08:18:56;;;;;;;21.70;10.40;;;;;;;5.81;75.16;99643.28;5085076;28;20322;-63
2021/12/09 08:21:26;;;;;;;19.70;8.53;;;;;;;5.87;75.37;99650.63;5080495;28;20232;-64
2021/12/09 08:23:54;;;;;;;19.97;9.17;;;;;;;5.82;75.01;99655.47;5082276;28;20293;-63
2021/12/09 08:26:23;;;;;;;20.30;9.40;;;;;;;5.70;75.09;99662.66;5081767;28;20289;-63
2021/12/09 08:28:51;;;;;;;18.47;8.63;;;;;;;5.90;74.55;99661.72;5086548;28;20224;-62
2021/12/09 08:31:18;;;;;;;18.07;8.20;;;;;;;6.02;74.16;99660.63;5086035;28;20335;-62
2021/12/09 08:33:48;;;;;;;16.30;8.03;;;;;;;6.10;73.71;99665.19;5087787;28;20213;-63
2021/12/09 08:36:36;;;;;;;17.53;8.47;;;;;;;6.08;74.12;99661.88;5090719;28;20252;-63
2021/12/09 08:39:07;;;;;;;20.33;8.50;;;;;;;5.98;74.06;99664.50;5083761;28;20242;-63
2021/12/09 08:41:35;;;;;;;18.20;8.10;;;;;;;5.76;75.43;99664.75;5086240;28;20209;-62
2021/12/09 08:44:03;;;;;;;23.33;8.83;;;;;;;5.73;75.21;99658.91;5085957;28;20356;-63
2021/12/09 08:46:31;;;;;;;18.70;8.10;;;;;;;5.90;74.37;99668.78;5081620;28;20237;-63
2021/12/09 08:49:00;;;;;;;17.27;8.50;;;;;;;5.97;74.50;99669.94;5094377;28;20207;-63
2021/12/09 08:51:28;;;;;;;19.27;8.93;;;;;;;5.74;75.37;99673.72;5081574;28;20314;-64
2021/12/09 08:53:58;;;;;;;21.33;7.87;;;;;;;6.21;73.82;99686.13;5085323;28;20214;-63
2021/12/09 08:56:26;;;;;;;22.83;8.37;;;;;;;6.05;73.45;99683.22;5088166;28;20264;-63
2021/12/09 08:58:54;;;;;;;15.37;7.97;;;;;;;5.72;74.92;99686.22;5087788;28;20217;-63
2021/12/09 09:01:22;;;;;;;20.93;8.43;;;;;;;6.18;73.95;99694.28;5087090;28;20215;-63
2021/12/09 09:03:50;;;;;;;20.63;8.00;;;;;;;6.06;73.87;99699.84;5082968;28;20219;-64
2021/12/09 09:06:19;;;;;;;18.43;8.07;;;;;;;6.11;73.29;99702.88;5083754;28;20693;-64
2021/12/09 09:08:50;;;;;;;18.97;7.20;;;;;;;6.07;73.86;99702.31;5085534;28;20219;-64
2021/12/09 09:11:18;;;;;;;18.77;7.30;;;;;;;6.00;74.15;99691.50;5090872;28;20218;-63
2021/12/09 09:13:46;;;;;;;16.53;7.20;;;;;;;6.29;73.41;99696.78;5083611;28;20273;-64
2021/12/09 09:16:14;;;;;;;16.33;8.13;;;;;;;6.37;72.58;99696.91;5085216;28;20318;-63
2021/12/09 09:18:41;;;;;;;16.87;7.30;;;;;;;6.28;72.97;99695.13;5084500;28;20206;-63
2021/12/09 09:21:10;;;;;;;17.67;7.27;;;;;;;6.09;73.25;99689.84;5084141;28;20289;-63
2021/12/09 09:23:39;;;;;;;12.67;6.27;;;;;;;6.17;73.62;99690.00;5086154;28;20209;-63
2021/12/09 09:26:07;;;;;;;15.67;6.93;;;;;;;6.27;73.50;99692.63;5080852;28;20264;-63
2021/12/09 09:28:35;;;;;;;14.40;7.53;;;;;;;6.31;73.23;99694.03;5084534;28;20665;-63
2021/12/09 09:31:04;;;;;;;15.47;7.50;;;;;;;6.29;73.33;99694.16;5084297;28;20437;-63
2021/12/09 09:33:32;;;;;;;19.30;7.97;;;;;;;6.13;73.00;99687.78;5082617;28;20242;-63
2021/12/09 09:36:00;;;;;;;24.23;9.27;;;;;;;6.43;72.91;99693.72;5078649;28;20231;-62
2021/12/09 09:38:28;;;;;;;20.33;8.50;;;;;;;6.17;74.09;99697.06;5078619;28;20302;-63
2021/12/09 09:41:05;;;;;;;21.60;9.20;;;;;;;6.36;73.45;99697.06;5086449;28;20233;-64
2021/12/09 09:43:55;;;;;;;15.90;7.37;;;;;;;6.53;73.33;99708.69;5084757;28;20222;-62
2021/12/09 09:46:25;;;;;;;16.37;8.63;;;;;;;6.52;73.06;99707.84;5081435;28;20298;-63
2021/12/09 09:48:54;;;;;;;20.30;8.27;;;;;;;6.41;73.11;99714.13;5077732;28;20218;-61
2021/12/09 09:51:24;;;;;;;24.57;10.03;;;;;;;6.32;73.76;99714.13;5092815;28;20233;-62
2021/12/09 09:53:52;;;;;;;18.43;8.50;;;;;;;6.21;74.13;99720.34;5106513;22;20773;-62
2021/12/09 09:56:23;;;;;;;18.53;8.80;;;;;;;6.07;74.84;99718.09;5018901;28;20663;-62
2021/12/09 09:58:53;;;;;;;18.00;7.47;;;;;;;5.87;74.63;99726.94;5041243;28;20300;-62
2021/12/09 10:01:23;;;;;;;14.93;8.07;;;;;;;5.94;74.11;99728.09;5044171;28;20232;-63
2021/12/09 10:03:57;;;;;;;14.93;6.10;;;;;;;6.05;73.29;99725.34;5036861;28;20218;-62
2021/12/09 10:06:25;;;;;;;18.60;6.13;;;;;;;6.35;72.75;99722.56;5039113;28;20735;-63
2021/12/09 10:08:53;;;;;;;16.60;6.90;;;;;;;6.34;72.86;99720.06;5033366;28;20847;-63
2021/12/09 10:11:22;;;;;;;20.43;7.90;;;;;;;6.06;73.30;99711.22;5032571;28;20280;-64
2021/12/09 10:13:49;;;;;;;18.00;7.23;;;;;;;5.92;74.52;99709.78;5031991;28;20213;-65
2021/12/09 10:16:21;;;;;;;13.33;6.53;;;;;;;6.06;74.03;99700.69;5017683;28;20280;-65
2021/12/09 10:18:51;;;;;;;15.67;7.13;;;;;;;5.80;74.66;99696.88;5020236;28;20208;-65
2021/12/09 10:21:22;;;;;;;18.70;6.97;;;;;;;6.09;73.32;99710.91;5038162;28;20297;-64
2021/12/09 10:23:59;;;;;;;16.83;7.53;;;;;;;6.00;73.17;99707.31;5048561;28;20212;-64
2021/12/09 10:26:29;;;;;;;12.70;6.77;;;;;;;5.79;73.60;99708.38;5038965;28;20216;-64
2021/12/09 10:29:06;;;;;;;13.73;6.43;;;;;;;6.17;72.73;99711.06;5041409;28;20223;-65
2021/12/09 10:31:39;;;;;;;15.37;7.23;;;;;;;6.23;72.90;99713.16;5027075;28;20260;-66
2021/12/09 10:34:20;;;;;;;19.37;8.23;;;;;;;6.62;72.02;99708.66;5037297;28;20648;-64
2021/12/09 10:37:01;;;;;;;17.07;6.97;;;;;;;6.50;71.26;99703.72;5034543;28;20240;-65
2021/12/09 10:39:43;;;;;;;19.17;7.50;;;;;;;6.51;71.78;99708.00;5038650;28;20245;-65
2021/12/09 10:42:15;;;;;;;15.93;7.03;;;;;;;6.45;71.74;99700.66;5038704;28;20215;-66
2021/12/09 10:44:56;;;;;;;16.77;6.57;;;;;;;6.55;71.12;99701.47;5039120;28;20649;-64
2021/12/09 10:47:48;;;;;;;16.23;8.33;;;;;;;6.63;71.21;99704.22;5044903;28;20213;-64
2021/12/09 10:50:26;;;;;;;19.20;9.03;;;;;;;6.72;70.87;99692.84;5043314;28;20214;-64
2021/12/09 10:52:58;;;;;;;18.13;8.57;;;;;;;6.09;72.53;99700.38;5044485;28;20303;-63
2021/12/09 10:55:29;;;;;;;19.73;8.67;;;;;;;6.29;73.50;99696.78;5031345;28;20709;-64
2021/12/09 10:58:09;;;;;;;20.53;8.07;;;;;;;6.07;73.74;99697.06;5022631;28;20674;-63
2021/12/09 11:00:41;;;;;;;19.43;8.60;;;;;;;5.98;73.93;99693.44;5031307;28;20209;-63
2021/12/09 11:03:19;;;;;;;23.70;8.60;;;;;;;6.31;73.08;99705.38;5025531;28;20248;-63
2021/12/09 11:05:53;;;;;;;16.87;8.90;;;;;;;6.17;73.36;99700.53;5034452;28;20246;-63
2021/12/09 11:08:28;;;;;;;22.67;8.67;;;;;;;6.14;73.09;99697.34;5028224;28;20212;-63
2021/12/09 11:11:15;;;;;;;19.27;8.17;;;;;;;6.13;72.65;99704.41;5028342;28;20236;-62
2021/12/09 11:13:48;;;;;;;16.20;7.70;;;;;;;5.98;73.53;99701.34;5022578;28;20574;-64
2021/12/09 11:16:23;;;;;;;16.73;7.50;;;;;;;6.05;73.53;99696.38;5026021;28;20303;-64
2021/12/09 11:18:56;;;;;;;17.80;8.07;;;;;;;6.41;72.51;99703.59;5033578;28;20319;-65
2021/12/09 11:21:28;;;;;;;15.77;7.87;;;;;;;6.29;72.89;99702.06;5038094;28;20212;-63
2021/12/09 11:24:01;;;;;;;16.47;7.80;;;;;;;6.51;72.13;99713.28;5024436;28;20308;-63
2021/12/09 11:26:46;;;;;;;17.30;7.27;;;;;;;6.43;71.95;99709.50;5026769;28;20218;-64
2021/12/09 11:29:18;;;;;;;14.40;6.43;;;;;;;6.36;71.57;99703.16;5020178;28;20556;-63
2021/12/09 11:31:59;;;;;;;14.67;6.27;;;;;;;6.51;71.46;99702.75;5033854;28;20625;-64
2021/12/09 11:34:34;;;;;;;12.67;5.97;;;;;;;6.60;70.76;99704.50;5030989;28;20248;-64
2021/12/09 11:37:10;;;;;;;10.50;5.70;;;;;;;6.55;71.17;99701.47;5026006;28;20741;-64
2021/12/09 11:39:39;;;;;;;13.33;6.73;;;;;;;6.58;70.63;99709.09;5029079;28;20221;-63
2021/12/09 11:42:19;;;;;;;13.73;6.27;;;;;;;6.68;70.48;99702.03;5029305;28;20299;-63
2021/12/09 11:45:07;;;;;;;12.93;5.80;;;;;;;6.87;70.05;99711.66;5025437;28;20208;-65
2021/12/09 11:47:35;;;;;;;12.90;5.63;;;;;;;6.77;69.81;99712.50;5024920;28;20336;-64